Time;durP1;ratioP1;P1;durP2;ratioP2;P2;SDS_P1;SDS_P2;PMS_P1;PMS_P2;Temp;Humidity;BMP_temperature;BMP_pressure;BME280_temperature;BME280_humidity;BME280_pressure;Samples;Min_cycle;Max_cycle;Signal;HPM_P1;HPM_P2
2022/08/02 00:00:15;;;;;;;1.57;1.10;;;26.90;54.40;;;;;;4982754;28;21469;-47
2022/08/02 00:02:45;;;;;;;1.60;1.40;;;26.90;54.20;;;;;;4992134;28;20441;-50
2022/08/02 00:05:11;;;;;;;1.10;1.00;;;27.00;53.90;;;;;;4986283;28;20458;-49
2022/08/02 00:07:37;;;;;;;1.10;1.00;;;27.10;53.60;;;;;;4990190;28;20552;-48
2022/08/02 00:10:04;;;;;;;1.83;0.90;;;27.20;53.30;;;;;;4989109;28;20523;-49
2022/08/02 00:12:29;;;;;;;1.27;0.87;;;27.20;53.10;;;;;;4975907;28;20450;-46
2022/08/02 00:14:55;;;;;;;1.10;0.97;;;27.00;53.70;;;;;;4985346;28;20513;-46
2022/08/02 00:17:21;;;;;;;1.30;1.20;;;27.00;53.80;;;;;;4981678;28;20202;-46
2022/08/02 00:19:47;;;;;;;1.97;1.20;;;27.10;53.40;;;;;;4983460;28;20199;-50
2022/08/02 00:22:13;;;;;;;1.50;0.90;;;27.20;53.10;;;;;;4977350;28;20670;-49
2022/08/02 00:24:38;;;;;;;1.27;1.17;;;27.30;52.80;;;;;;4990926;28;20650;-47
2022/08/02 00:27:07;;;;;;;1.37;1.10;;;27.40;52.60;;;;;;4993344;28;20489;-46
2022/08/02 00:29:33;;;;;;;2.27;1.07;;;27.50;52.40;;;;;;4989719;28;20198;-47
2022/08/02 00:31:59;;;;;;;1.10;1.00;;;27.50;52.10;;;;;;4986562;28;20814;-51
2022/08/02 00:34:25;;;;;;;3.70;1.40;;;27.60;52.00;;;;;;4991748;28;20516;-49
2022/08/02 00:36:50;;;;;;;1.27;1.17;;;27.60;51.90;;;;;;4990650;28;20199;-46
2022/08/02 00:39:16;;;;;;;1.67;1.20;;;27.60;51.90;;;;;;4990852;28;20662;-46
2022/08/02 00:41:52;;;;;;;1.30;1.20;;;27.70;51.80;;;;;;4991048;28;20203;-47
2022/08/02 00:44:19;;;;;;;3.40;1.20;;;27.70;51.70;;;;;;4991571;28;20563;-49
2022/08/02 00:46:45;;;;;;;1.90;1.17;;;27.70;51.70;;;;;;4985125;28;20900;-51
2022/08/02 00:49:12;;;;;;;2.63;1.20;;;27.70;51.90;;;;;;4989773;28;20445;-45
2022/08/02 00:51:39;;;;;;;2.40;1.27;;;27.60;52.30;;;;;;4982445;28;20478;-46
2022/08/02 00:54:05;;;;;;;1.30;1.20;;;27.50;52.30;;;;;;4989722;28;20544;-47
2022/08/02 00:56:31;;;;;;;1.20;1.10;;;27.50;52.40;;;;;;4989423;28;20977;-47
2022/08/02 00:58:57;;;;;;;1.20;1.13;;;27.50;52.30;;;;;;4985990;28;20486;-46
2022/08/02 01:01:37;;;;;;;2.30;1.40;;;27.50;52.40;;;;;;4983770;28;20453;-49
2022/08/02 01:04:08;;;;;;;1.70;1.60;;;27.50;52.20;;;;;;4973587;28;20458;-46
2022/08/02 01:06:34;;;;;;;1.20;1.20;;;27.60;52.20;;;;;;4973456;28;20490;-48
2022/08/02 01:09:01;;;;;;;4.80;1.37;;;27.50;52.30;;;;;;4987643;28;20442;-46
2022/08/02 01:11:28;;;;;;;1.50;1.40;;;27.60;52.10;;;;;;4991571;28;20472;-47
2022/08/02 01:14:09;;;;;;;1.17;1.07;;;27.50;52.00;;;;;;4989722;28;20445;-46
2022/08/02 01:16:44;;;;;;;5.33;1.53;;;27.50;52.20;;;;;;4989108;28;21352;-46
2022/08/02 01:19:28;;;;;;;1.53;1.23;;;27.40;52.20;;;;;;4988701;28;20536;-48
2022/08/02 01:22:18;;;;;;;1.43;1.33;;;27.40;52.40;;;;;;4984610;28;20873;-47
2022/08/02 01:25:01;;;;;;;1.60;1.50;;;27.20;52.50;;;;;;4985849;28;20464;-48
2022/08/02 01:27:41;;;;;;;1.50;1.40;;;27.20;52.70;;;;;;4986498;28;20524;-49
2022/08/02 01:30:09;;;;;;;3.27;1.67;;;27.10;52.90;;;;;;4988481;28;20781;-49
2022/08/02 01:32:45;;;;;;;1.70;1.60;;;27.00;53.00;;;;;;4983535;28;20581;-47
2022/08/02 01:35:15;;;;;;;1.63;1.53;;;26.90;53.30;;;;;;4988349;28;20438;-47
2022/08/02 01:37:52;;;;;;;1.50;1.20;;;26.80;53.60;;;;;;4982527;28;20451;-48
2022/08/02 01:40:26;;;;;;;1.80;1.47;;;26.70;53.80;;;;;;4984747;28;20445;-47
2022/08/02 01:42:54;;;;;;;5.40;1.70;;;26.70;54.00;;;;;;4984148;28;20573;-46
2022/08/02 01:45:23;;;;;;;1.97;1.30;;;26.60;54.20;;;;;;4986891;28;20941;-46
2022/08/02 01:47:50;;;;;;;6.13;2.60;;;26.60;54.30;;;;;;4983577;28;20803;-48
2022/08/02 01:50:20;;;;;;;1.87;1.77;;;26.60;54.30;;;;;;4981501;28;20457;-45
2022/08/02 01:52:52;;;;;;;2.23;2.00;;;26.60;54.50;;;;;;4985288;28;20438;-48
2022/08/02 01:55:41;;;;;;;2.27;1.70;;;26.60;54.50;;;;;;4978224;28;20447;-47
2022/08/02 01:58:13;;;;;;;1.33;1.23;;;26.60;54.40;;;;;;4978805;28;20458;-46
2022/08/02 02:00:43;;;;;;;1.60;1.43;;;26.70;54.30;;;;;;4984557;28;20446;-46
2022/08/02 02:03:13;;;;;;;1.40;1.30;;;26.70;54.20;;;;;;4979607;28;20457;-49
2022/08/02 02:05:40;;;;;;;1.63;1.53;;;26.70;54.10;;;;;;4985609;28;20524;-47
2022/08/02 02:08:08;;;;;;;1.63;1.53;;;26.70;54.00;;;;;;4986665;28;20468;-47
2022/08/02 02:10:37;;;;;;;1.73;1.63;;;26.70;53.90;;;;;;4982716;28;20452;-45
2022/08/02 02:13:06;;;;;;;1.70;1.47;;;26.70;53.90;;;;;;4984707;28;20441;-48
2022/08/02 02:15:34;;;;;;;1.60;1.50;;;26.70;53.80;;;;;;4981728;28;20458;-46
2022/08/02 02:18:01;;;;;;;2.07;1.40;;;26.70;53.80;;;;;;4986556;28;20441;-45
2022/08/02 02:20:27;;;;;;;1.93;1.50;;;26.60;54.10;;;;;;4981927;28;20580;-47
2022/08/02 02:22:53;;;;;;;1.97;1.50;;;26.50;54.10;;;;;;4986205;28;20444;-45
2022/08/02 02:25:21;;;;;;;1.57;1.47;;;26.50;54.10;;;;;;4981551;28;20441;-45
2022/08/02 02:27:54;;;;;;;2.60;1.63;;;26.50;54.10;;;;;;4984127;28;20543;-47
2022/08/02 02:30:21;;;;;;;1.50;1.40;;;26.50;54.10;;;;;;4984589;28;20870;-47
2022/08/02 02:32:49;;;;;;;1.63;1.40;;;26.40;54.60;;;;;;4987461;28;20560;-48
2022/08/02 02:35:16;;;;;;;1.63;1.53;;;26.40;54.40;;;;;;4988169;28;20476;-46
2022/08/02 02:37:43;;;;;;;1.83;1.73;;;26.50;54.40;;;;;;4985410;28;20450;-46
2022/08/02 02:40:10;;;;;;;3.43;1.77;;;26.50;54.20;;;;;;4976434;28;20814;-50
2022/08/02 02:42:36;;;;;;;2.17;1.97;;;26.60;54.20;;;;;;4987239;28;20504;-46
2022/08/02 02:45:03;;;;;;;3.93;2.13;;;26.60;54.20;;;;;;4982761;28;20450;-45
2022/08/02 02:47:31;;;;;;;1.70;1.60;;;26.50;54.60;;;;;;4987505;28;20496;-46
2022/08/02 02:49:57;;;;;;;2.00;1.80;;;26.50;54.50;;;;;;4985452;28;20484;-48
2022/08/02 02:52:24;;;;;;;1.90;1.80;;;26.50;54.50;;;;;;4988059;28;20449;-50
2022/08/02 02:54:51;;;;;;;1.87;1.77;;;26.50;54.50;;;;;;4986329;28;20441;-48
2022/08/02 02:57:18;;;;;;;2.10;2.00;;;26.50;54.50;;;;;;4976219;28;20551;-49
2022/08/02 02:59:44;;;;;;;4.57;1.70;;;26.40;54.40;;;;;;4986348;28;20853;-48
2022/08/02 03:02:12;;;;;;;1.97;1.87;;;26.40;54.70;;;;;;4983321;28;20989;-46
2022/08/02 03:04:40;;;;;;;1.67;1.57;;;26.40;54.50;;;;;;4988526;28;20464;-51
2022/08/02 03:07:06;;;;;;;1.60;1.50;;;26.40;54.50;;;;;;4983433;28;20490;-49
2022/08/02 03:09:32;;;;;;;2.27;2.10;;;26.40;54.50;;;;;;4974471;28;20445;-51
2022/08/02 03:11:58;;;;;;;1.30;1.30;;;26.30;54.50;;;;;;4977800;28;20195;-45
2022/08/02 03:14:24;;;;;;;2.60;1.83;;;26.30;54.60;;;;;;4984891;28;20500;-47
2022/08/02 03:16:52;;;;;;;3.00;2.03;;;26.30;54.60;;;;;;4989638;28;20450;-49
2022/08/02 03:19:21;;;;;;;1.70;1.20;;;26.20;54.80;;;;;;4992046;28;21016;-50
2022/08/02 03:21:48;;;;;;;3.20;1.53;;;26.20;54.80;;;;;;4993713;28;20469;-49
2022/08/02 03:24:14;;;;;;;3.43;1.90;;;26.20;54.80;;;;;;4983099;28;20514;-48
2022/08/02 03:26:40;;;;;;;2.30;1.90;;;26.10;55.10;;;;;;4987234;28;20647;-46
2022/08/02 03:29:06;;;;;;;2.07;1.83;;;26.10;55.10;;;;;;4991024;28;20681;-47
2022/08/02 03:31:32;;;;;;;1.60;1.50;;;26.10;54.70;;;;;;4983999;28;20445;-46
2022/08/02 03:33:59;;;;;;;4.77;1.63;;;26.00;55.00;;;;;;4991026;28;20195;-46
2022/08/02 03:36:30;;;;;;;2.17;1.97;;;25.60;56.40;;;;;;4985501;28;20560;-49
2022/08/02 03:38:56;;;;;;;3.70;2.20;;;25.40;57.00;;;;;;4992592;28;20951;-46
2022/08/02 03:41:22;;;;;;;2.20;2.10;;;25.40;57.10;;;;;;4986462;28;21075;-45
2022/08/02 03:43:49;;;;;;;4.23;2.00;;;25.40;56.90;;;;;;4993561;28;20436;-49
2022/08/02 03:46:21;;;;;;;2.13;1.90;;;25.20;57.70;;;;;;4991818;28;20493;-48
2022/08/02 03:48:49;;;;;;;2.10;1.87;;;25.10;57.70;;;;;;4986236;28;20491;-50
2022/08/02 03:51:15;;;;;;;1.90;1.67;;;25.20;57.70;;;;;;4985764;28;20450;-50
2022/08/02 03:53:41;;;;;;;2.33;2.13;;;25.20;57.30;;;;;;4981771;28;20446;-50
2022/08/02 03:56:08;;;;;;;2.53;1.90;;;25.20;57.40;;;;;;4986365;28;20461;-44
2022/08/02 03:58:34;;;;;;;1.80;1.70;;;25.20;57.50;;;;;;4986499;28;20274;-48
2022/08/02 04:01:00;;;;;;;1.80;1.70;;;25.20;57.50;;;;;;4988201;28;20580;-46
2022/08/02 04:03:26;;;;;;;4.63;1.70;;;25.30;57.40;;;;;;4988102;28;20195;-47
2022/08/02 04:05:52;;;;;;;2.10;2.00;;;25.40;57.20;;;;;;4994465;28;20494;-46
2022/08/02 04:08:18;;;;;;;2.00;1.80;;;25.40;56.90;;;;;;4977063;28;20919;-48
2022/08/02 04:13:34;;;;;;;2.33;2.10;;;25.50;56.90;;;;;;4989607;28;20689;-46
2022/08/02 04:16:09;;;;;;;3.10;1.90;;;25.50;56.80;;;;;;4989011;28;20453;-47
2022/08/02 04:18:39;;;;;;;1.97;1.83;;;25.50;56.90;;;;;;4989349;28;20446;-47
2022/08/02 04:21:06;;;;;;;2.00;1.90;;;25.50;56.70;;;;;;4992473;28;20541;-50
2022/08/02 04:23:35;;;;;;;7.03;2.10;;;25.50;56.90;;;;;;4993587;28;20466;-46
2022/08/02 04:26:03;;;;;;;3.57;2.30;;;25.50;56.80;;;;;;4986801;28;20505;-47
2022/08/02 04:28:29;;;;;;;1.80;1.70;;;25.50;57.00;;;;;;4976163;28;20438;-46
2022/08/02 04:30:56;;;;;;;3.60;2.30;;;25.60;57.00;;;;;;4976075;28;20450;-45
2022/08/02 04:33:23;;;;;;;2.90;2.17;;;25.60;56.70;;;;;;4989682;28;20445;-47
2022/08/02 04:35:48;;;;;;;2.93;2.13;;;25.60;56.90;;;;;;4993058;28;20448;-47
2022/08/02 04:38:15;;;;;;;1.70;1.60;;;25.30;58.20;;;;;;4977385;28;20442;-45
2022/08/02 04:40:49;;;;;;;5.43;2.27;;;25.30;58.00;;;;;;4977687;28;20195;-48
2022/08/02 04:43:15;;;;;;;4.10;2.00;;;25.10;58.30;;;;;;4989898;28;20441;-50
2022/08/02 04:45:42;;;;;;;2.57;2.37;;;25.10;58.40;;;;;;4982015;28;20448;-46
2022/08/02 04:48:07;;;;;;;2.00;1.80;;;25.30;58.10;;;;;;4975143;28;20211;-47
2022/08/02 04:50:33;;;;;;;3.20;2.17;;;25.40;57.70;;;;;;4987858;28;20441;-46
2022/08/02 04:52:59;;;;;;;3.30;2.60;;;25.50;57.30;;;;;;4972987;28;20202;-47
2022/08/02 04:55:27;;;;;;;3.20;2.40;;;25.60;57.10;;;;;;4985453;28;20441;-46
2022/08/02 04:57:53;;;;;;;2.80;2.03;;;25.60;56.90;;;;;;4983560;28;20209;-46
2022/08/02 05:00:19;;;;;;;2.47;2.27;;;25.70;56.90;;;;;;4976629;28;20829;-46
2022/08/02 05:02:45;;;;;;;2.10;1.83;;;25.70;56.80;;;;;;4991036;28;20434;-46
2022/08/02 05:05:11;;;;;;;2.10;2.00;;;25.80;56.80;;;;;;4989150;28;20449;-47
2022/08/02 05:07:36;;;;;;;3.00;2.10;;;25.80;56.70;;;;;;4974392;28;20231;-48
2022/08/02 05:10:03;;;;;;;2.00;1.90;;;25.80;56.90;;;;;;4980675;28;20274;-48
2022/08/02 05:12:29;;;;;;;7.03;2.00;;;25.70;57.30;;;;;;4982788;28;20205;-46
2022/08/02 05:14:54;;;;;;;2.10;2.00;;;25.30;58.40;;;;;;4984556;28;20450;-47
2022/08/02 05:17:20;;;;;;;2.23;2.03;;;25.30;58.60;;;;;;4981916;28;20322;-49
2022/08/02 05:19:46;;;;;;;1.80;1.70;;;25.50;58.40;;;;;;4981534;28;20201;-48
2022/08/02 05:22:11;;;;;;;5.30;2.47;;;25.60;57.90;;;;;;4982859;28;20194;-45
2022/08/02 05:24:37;;;;;;;2.43;2.00;;;25.70;57.40;;;;;;4986881;28;20202;-46
2022/08/02 05:27:02;;;;;;;2.90;2.30;;;25.80;57.10;;;;;;4982418;28;20238;-46
2022/08/02 05:29:28;;;;;;;2.20;2.00;;;25.60;57.70;;;;;;4982798;28;20548;-46
2022/08/02 05:31:54;;;;;;;2.27;2.07;;;25.50;58.40;;;;;;4984939;28;20197;-45
2022/08/02 05:34:19;;;;;;;2.77;2.07;;;25.50;58.40;;;;;;4986347;28;20226;-47
2022/08/02 05:36:45;;;;;;;3.20;2.27;;;25.60;58.10;;;;;;4987823;28;20201;-45
2022/08/02 05:39:10;;;;;;;2.30;2.10;;;25.60;58.60;;;;;;4990774;28;20186;-46
2022/08/02 05:41:36;;;;;;;3.23;2.13;;;25.50;58.30;;;;;;4977711;28;20996;-45
2022/08/02 05:44:02;;;;;;;3.30;2.10;;;25.60;58.20;;;;;;4983553;28;20198;-46
2022/08/02 05:46:28;;;;;;;2.70;2.50;;;25.70;58.00;;;;;;4989191;28;20285;-44
2022/08/02 05:48:54;;;;;;;2.67;1.93;;;25.80;57.70;;;;;;4987438;28;20442;-45
2022/08/02 05:51:36;;;;;;;5.20;2.58;;;25.90;57.60;;;;;;4978130;28;20840;-49
2022/08/02 05:54:30;;;;;;;2.33;2.13;;;26.00;57.40;;;;;;4989888;28;20198;-46
2022/08/02 05:57:02;;;;;;;2.97;2.70;;;25.70;58.20;;;;;;4990867;28;20461;-49
2022/08/02 05:59:39;;;;;;;2.90;2.70;;;25.80;58.20;;;;;;4988862;28;20457;-47
2022/08/02 06:02:27;;;;;;;2.87;2.67;;;25.80;58.20;;;;;;4984622;28;20457;-49
2022/08/02 06:05:00;;;;;;;3.60;2.60;;;25.80;58.30;;;;;;4987645;28;20454;-46
2022/08/02 06:07:27;;;;;;;4.77;2.40;;;25.80;58.30;;;;;;4989228;28;21005;-47
2022/08/02 06:09:53;;;;;;;3.10;2.90;;;25.80;58.20;;;;;;4984422;28;20445;-49
2022/08/02 06:12:20;;;;;;;3.00;2.53;;;25.80;58.20;;;;;;4989436;28;20437;-46
2022/08/02 06:14:46;;;;;;;2.93;2.73;;;25.60;58.60;;;;;;4971177;28;20210;-47
2022/08/02 06:17:13;;;;;;;3.03;2.70;;;25.60;59.10;;;;;;4971893;28;20566;-47
2022/08/02 06:19:41;;;;;;;5.13;3.13;;;25.40;59.90;;;;;;4983598;28;20445;-48
2022/08/02 06:22:16;;;;;;;3.67;2.73;;;25.30;60.10;;;;;;4989075;28;20496;-46
2022/08/02 06:24:45;;;;;;;2.83;2.63;;;25.20;61.20;;;;;;4988432;28;20437;-46
2022/08/02 06:27:14;;;;;;;3.40;3.10;;;25.30;60.90;;;;;;4979877;28;20497;-45
2022/08/02 06:29:43;;;;;;;2.87;2.53;;;25.50;60.50;;;;;;4988198;28;20525;-46
2022/08/02 06:32:09;;;;;;;5.20;3.20;;;25.60;60.00;;;;;;4989040;28;20472;-48
2022/08/02 06:34:37;;;;;;;3.23;2.77;;;25.70;59.90;;;;;;4971719;28;21093;-48
2022/08/02 06:37:25;;;;;;;5.43;3.10;;;25.60;60.20;;;;;;5000962;28;20524;-47
2022/08/02 06:40:00;;;;;;;4.33;3.07;;;25.90;59.80;;;;;;4977877;28;20447;-46
2022/08/02 06:42:36;;;;;;;3.73;2.77;;;26.00;59.30;;;;;;4973703;28;20855;-48
2022/08/02 06:45:02;;;;;;;4.37;3.60;;;26.10;58.10;;;;;;4978137;28;20496;-47
2022/08/02 06:47:27;;;;;;;5.10;3.60;;;26.20;57.40;;;;;;4990623;28;20501;-50
2022/08/02 06:49:54;;;;;;;5.10;3.83;;;26.30;57.20;;;;;;4982537;28;20465;-48
2022/08/02 06:52:29;;;;;;;4.97;3.57;;;26.30;56.50;;;;;;4992758;28;20198;-48
2022/08/02 06:55:00;;;;;;;3.93;3.63;;;26.40;56.30;;;;;;4983416;28;20500;-50
2022/08/02 06:57:26;;;;;;;5.50;4.10;;;26.50;56.80;;;;;;4981033;28;20462;-51
2022/08/02 06:59:52;;;;;;;4.83;4.13;;;26.60;56.90;;;;;;4989915;28;20532;-48
2022/08/02 07:02:18;;;;;;;4.47;3.90;;;26.70;56.40;;;;;;4989262;28;20526;-46
2022/08/02 07:04:43;;;;;;;5.00;4.00;;;26.70;56.20;;;;;;4993363;28;20602;-45
2022/08/02 07:07:09;;;;;;;4.10;3.50;;;26.80;56.10;;;;;;4990184;28;20237;-51
2022/08/02 07:09:35;;;;;;;4.00;3.70;;;26.90;55.80;;;;;;4972924;28;20692;-46
2022/08/02 07:12:00;;;;;;;4.33;3.57;;;27.00;55.80;;;;;;4978769;28;20573;-45
2022/08/02 07:14:26;;;;;;;4.40;4.00;;;27.00;55.80;;;;;;4976385;28;20227;-49
2022/08/02 07:16:52;;;;;;;4.50;4.20;;;27.10;55.40;;;;;;4986530;28;20246;-47
2022/08/02 07:19:18;;;;;;;9.93;4.63;;;27.10;55.00;;;;;;4980912;28;20662;-46
2022/08/02 07:21:43;;;;;;;6.10;4.40;;;27.20;54.70;;;;;;4981458;28;20663;-45
2022/08/02 07:24:09;;;;;;;6.57;5.17;;;27.30;54.00;;;;;;4993874;28;20244;-47
2022/08/02 07:26:34;;;;;;;5.63;5.13;;;27.30;53.90;;;;;;4983648;28;20649;-45
2022/08/02 07:29:00;;;;;;;4.33;3.93;;;27.30;54.00;;;;;;4988900;28;20205;-48
2022/08/02 07:31:25;;;;;;;6.90;4.60;;;27.40;54.40;;;;;;4986823;28;21230;-47
2022/08/02 07:33:51;;;;;;;7.20;4.10;;;27.40;54.40;;;;;;4977898;28;20218;-45
2022/08/02 07:36:17;;;;;;;5.03;4.53;;;27.60;54.20;;;;;;4971819;28;20274;-47
2022/08/02 07:38:43;;;;;;;6.73;5.10;;;27.70;53.90;;;;;;4988915;28;20183;-46
2022/08/02 07:41:08;;;;;;;5.13;4.50;;;27.80;53.10;;;;;;4984576;28;20202;-50
2022/08/02 07:43:34;;;;;;;5.00;4.40;;;27.90;52.50;;;;;;4977734;28;20191;-48
2022/08/02 07:45:59;;;;;;;6.33;4.50;;;27.90;52.80;;;;;;4976786;28;20219;-49
2022/08/02 07:48:25;;;;;;;6.60;4.90;;;28.00;52.30;;;;;;4979433;28;20281;-46
2022/08/02 07:50:50;;;;;;;6.00;4.23;;;28.10;52.70;;;;;;4986350;28;20188;-47
2022/08/02 07:53:16;;;;;;;6.53;5.17;;;28.30;52.10;;;;;;4978465;28;20190;-46
2022/08/02 07:55:42;;;;;;;4.93;4.57;;;28.10;52.40;;;;;;4982918;28;20240;-46
2022/08/02 07:58:09;;;;;;;6.43;4.73;;;28.10;52.70;;;;;;4987514;28;20205;-47
2022/08/02 08:00:34;;;;;;;4.87;4.47;;;28.30;52.10;;;;;;4986253;28;20202;-46
2022/08/02 08:03:00;;;;;;;4.90;4.50;;;28.50;51.10;;;;;;4984315;28;20457;-47
2022/08/02 08:05:25;;;;;;;5.90;4.90;;;28.60;50.80;;;;;;4978514;28;20818;-47
2022/08/02 08:07:51;;;;;;;5.80;4.67;;;28.70;50.30;;;;;;4977006;28;20222;-47
2022/08/02 08:10:17;;;;;;;4.47;4.10;;;28.80;50.40;;;;;;4988120;28;20281;-46
2022/08/02 08:12:48;;;;;;;5.17;4.77;;;28.80;50.60;;;;;;4987408;28;20195;-50
2022/08/02 08:15:17;;;;;;;5.20;4.70;;;28.90;50.00;;;;;;4988465;28;20187;-50
2022/08/02 08:17:42;;;;;;;4.87;4.57;;;29.10;49.80;;;;;;4987871;28;20457;-50
2022/08/02 08:20:08;;;;;;;4.00;3.70;;;29.20;49.20;;;;;;4986876;28;20449;-52
2022/08/02 08:22:34;;;;;;;4.83;4.33;;;29.30;49.20;;;;;;4986261;28;20199;-47
2022/08/02 08:24:59;;;;;;;4.60;4.20;;;29.50;48.90;;;;;;4986144;28;20446;-47
2022/08/02 08:27:25;;;;;;;4.83;4.43;;;29.60;48.50;;;;;;4945720;28;1171515;-48
2022/08/02 08:29:51;;;;;;;5.87;4.47;;;29.80;48.30;;;;;;4984060;28;20291;-47
2022/08/02 08:32:16;;;;;;;5.60;5.07;;;29.90;47.50;;;;;;4979667;28;20209;-47
2022/08/02 08:34:42;;;;;;;6.50;4.33;;;29.80;46.40;;;;;;4986334;28;20274;-47
2022/08/02 08:37:08;;;;;;;4.40;4.10;;;29.70;46.30;;;;;;4985283;28;20241;-46
2022/08/02 08:39:33;;;;;;;7.20;4.00;;;29.80;46.50;;;;;;4990299;28;20545;-46
2022/08/02 08:41:59;;;;;;;5.53;5.03;;;29.90;46.40;;;;;;4984304;28;20253;-47
2022/08/02 08:44:26;;;;;;;6.30;4.83;;;29.90;46.30;;;;;;4986152;28;20195;-51
2022/08/02 08:46:55;;;;;;;4.90;4.43;;;30.00;46.00;;;;;;4992043;28;20321;-51
2022/08/02 08:49:35;;;;;;;4.97;4.57;;;30.10;46.00;;;;;;4991416;28;20488;-46
2022/08/02 08:52:04;;;;;;;4.97;4.57;;;30.30;45.90;;;;;;4987628;28;20512;-46
2022/08/02 08:54:34;;;;;;;4.70;4.30;;;30.30;45.60;;;;;;4985444;28;22537;-46
2022/08/02 08:57:04;;;;;;;4.73;4.33;;;30.40;45.00;;;;;;4990136;28;20510;-47
2022/08/02 08:59:29;;;;;;;5.63;3.97;;;30.40;45.00;;;;;;4985826;28;20436;-47
2022/08/02 09:01:58;;;;;;;4.30;3.70;;;30.60;45.00;;;;;;4988459;28;20446;-47
2022/08/02 09:04:23;;;;;;;4.90;4.20;;;30.70;44.40;;;;;;4982384;28;20217;-47
2022/08/02 09:06:52;;;;;;;3.77;3.47;;;30.80;44.20;;;;;;4976341;28;20486;-47
2022/08/02 09:09:18;;;;;;;4.70;4.30;;;31.00;43.90;;;;;;4997573;28;20307;-48
2022/08/02 09:11:46;;;;;;;4.90;4.50;;;31.20;42.60;;;;;;4979571;28;20470;-49
2022/08/02 09:14:31;;;;;;;5.00;4.60;;;31.30;41.80;;;;;;4988505;28;20282;-49
2022/08/02 09:17:09;;;;;;;4.43;4.03;;;31.20;41.80;;;;;;4980089;28;20887;-50
2022/08/02 09:19:35;;;;;;;5.13;4.63;;;31.40;41.90;;;;;;4987204;28;20457;-47
2022/08/02 09:22:10;;;;;;;4.83;4.30;;;31.40;41.90;;;;;;4977868;28;20458;-50
2022/08/02 09:24:52;;;;;;;6.33;5.63;;;31.50;41.60;;;;;;4971602;28;21033;-47
2022/08/02 09:27:21;;;;;;;4.63;4.23;;;31.60;41.00;;;;;;4971571;28;20870;-50
2022/08/02 09:29:49;;;;;;;4.63;4.20;;;31.60;40.90;;;;;;4985349;28;20562;-48
2022/08/02 09:32:16;;;;;;;4.97;4.57;;;31.80;41.10;;;;;;4975714;28;20485;-51
2022/08/02 09:34:50;;;;;;;4.70;4.33;;;31.90;40.70;;;;;;4989138;28;20457;-51
2022/08/02 09:37:30;;;;;;;5.17;4.77;;;32.00;40.20;;;;;;4975786;28;20553;-47
2022/08/02 09:39:59;;;;;;;5.10;4.70;;;32.10;40.50;;;;;;4984318;28;20441;-48
2022/08/02 09:42:25;;;;;;;4.87;4.47;;;32.20;39.90;;;;;;4982477;28;20578;-46
2022/08/02 09:44:59;;;;;;;4.80;4.50;;;32.30;39.90;;;;;;4983611;28;20478;-51
2022/08/02 09:47:26;;;;;;;7.63;4.50;;;32.40;39.80;;;;;;4974056;28;20881;-48
2022/08/02 09:49:56;;;;;;;4.50;4.20;;;32.40;39.90;;;;;;4981774;28;20459;-52
2022/08/02 09:52:26;;;;;;;6.20;4.30;;;32.60;39.80;;;;;;4983754;28;20460;-48
2022/08/02 09:54:52;;;;;;;4.60;4.30;;;32.80;39.60;;;;;;4982268;28;21023;-51
2022/08/02 09:57:27;;;;;;;6.43;5.00;;;33.00;39.10;;;;;;4982321;28;20489;-49
2022/08/02 09:59:57;;;;;;;4.90;4.60;;;33.20;38.70;;;;;;4976979;28;20492;-47
2022/08/02 10:02:23;;;;;;;8.30;4.10;;;33.40;38.20;;;;;;4984843;28;20978;-48
2022/08/02 10:04:48;;;;;;;5.27;4.50;;;33.60;38.00;;;;;;4984162;28;20449;-46
2022/08/02 10:07:15;;;;;;;4.43;4.13;;;33.50;37.60;;;;;;4987932;28;20485;-48
2022/08/02 10:09:42;;;;;;;4.80;4.50;;;33.60;37.90;;;;;;4975431;28;20203;-46
2022/08/02 10:12:08;;;;;;;5.23;4.83;;;33.80;37.50;;;;;;4984108;28;20829;-47
2022/08/02 10:14:34;;;;;;;4.80;4.40;;;33.90;36.90;;;;;;4987607;28;21020;-46
2022/08/02 10:17:03;;;;;;;4.73;4.13;;;33.90;37.00;;;;;;4979511;28;20530;-49
2022/08/02 10:19:29;;;;;;;4.63;4.33;;;33.90;36.90;;;;;;4973962;28;20210;-51
2022/08/02 10:22:10;;;;;;;5.43;4.10;;;34.10;36.70;;;;;;4983486;28;20442;-52
2022/08/02 10:24:40;;;;;;;4.43;4.13;;;34.20;36.30;;;;;;4973677;28;20226;-49
2022/08/02 10:27:15;;;;;;;5.23;4.80;;;34.10;36.70;;;;;;4981467;28;20563;-46
2022/08/02 10:29:44;;;;;;;3.80;3.60;;;34.00;36.40;;;;;;4983444;28;20974;-48
2022/08/02 10:32:14;;;;;;;5.07;4.57;;;34.30;36.70;;;;;;4985342;28;20437;-46
2022/08/02 10:34:39;;;;;;;4.10;3.80;;;34.50;35.20;;;;;;4981208;28;20461;-50
2022/08/02 10:37:07;;;;;;;5.33;4.80;;;34.60;35.30;;;;;;4986977;28;20453;-47
2022/08/02 10:39:45;;;;;;;4.63;4.33;;;34.70;35.20;;;;;;4974145;28;20982;-46
2022/08/02 10:42:12;;;;;;;4.40;4.07;;;34.70;35.00;;;;;;4984345;28;20456;-49
2022/08/02 10:44:41;;;;;;;4.30;3.90;;;34.80;35.00;;;;;;4980995;28;20449;-51
2022/08/02 10:47:24;;;;;;;4.40;4.07;;;35.00;34.80;;;;;;4981155;28;20558;-47
2022/08/02 10:49:56;;;;;;;4.17;3.87;;;35.10;34.30;;;;;;4984327;28;20453;-47
2022/08/02 10:52:24;;;;;;;4.27;3.40;;;35.00;33.90;;;;;;4982621;28;20458;-50
2022/08/02 10:55:09;;;;;;;4.13;3.77;;;34.80;35.00;;;;;;4987527;28;20446;-47
2022/08/02 10:57:35;;;;;;;4.40;4.00;;;35.10;34.20;;;;;;4971443;28;20456;-47
2022/08/02 11:00:12;;;;;;;4.63;3.77;;;34.10;35.50;;;;;;4984927;28;20445;-51
2022/08/02 11:02:43;;;;;;;4.00;3.70;;;34.60;35.80;;;;;;4983995;28;20461;-52
2022/08/02 11:05:25;;;;;;;4.80;3.90;;;35.10;34.90;;;;;;4984665;28;20579;-51
2022/08/02 11:07:51;;;;;;;4.43;4.13;;;35.60;34.10;;;;;;4979770;28;20855;-52
2022/08/02 11:10:26;;;;;;;4.87;3.97;;;35.90;33.20;;;;;;4971611;28;20426;-48
2022/08/02 11:13:15;;;;;;;4.43;4.13;;;36.10;32.40;;;;;;4987965;28;20579;-47
2022/08/02 11:15:49;;;;;;;7.33;4.30;;;36.20;32.40;;;;;;4981057;28;22098;-47
2022/08/02 11:18:14;;;;;;;4.40;4.00;;;36.40;32.60;;;;;;4986891;28;20484;-48
2022/08/02 11:20:40;;;;;;;4.10;3.80;;;36.50;32.30;;;;;;4987184;28;20465;-52
2022/08/02 11:23:37;;;;;;;3.77;3.57;;;36.80;32.20;;;;;;4977488;28;20666;-51
2022/08/02 11:26:29;;;;;;;4.10;3.70;;;36.90;31.60;;;;;;4986384;28;20214;-46
2022/08/02 11:28:59;;;;;;;3.77;3.47;;;37.20;31.20;;;;;;4976104;28;20446;-47
2022/08/02 11:31:25;;;;;;;4.10;3.70;;;37.40;30.60;;;;;;4973137;28;20448;-48
2022/08/02 11:33:51;;;;;;;4.10;3.57;;;37.50;30.60;;;;;;4987797;28;20441;-48
2022/08/02 11:36:17;;;;;;;3.70;3.40;;;37.70;30.10;;;;;;4988098;28;20225;-48
2022/08/02 11:38:43;;;;;;;3.97;3.67;;;37.70;30.50;;;;;;4985896;28;20469;-49
2022/08/02 11:41:17;;;;;;;3.30;3.10;;;37.80;29.20;;;;;;4984335;28;20444;-47
2022/08/02 11:43:43;;;;;;;3.63;3.43;;;37.80;29.50;;;;;;4987317;28;20467;-48
2022/08/02 11:46:13;;;;;;;3.13;2.87;;;38.00;29.40;;;;;;4988582;28;20500;-50
2022/08/02 11:48:40;;;;;;;3.43;3.17;;;38.20;29.10;;;;;;4984984;28;20448;-48
2022/08/02 11:51:14;;;;;;;6.70;3.20;;;38.20;29.00;;;;;;4982783;28;20509;-47
2022/08/02 11:53:51;;;;;;;3.53;3.23;;;38.30;29.00;;;;;;4982682;28;20445;-48
2022/08/02 11:56:29;;;;;;;4.00;3.70;;;38.20;28.60;;;;;;4983937;28;20496;-47
2022/08/02 11:59:05;;;;;;;3.80;3.60;;;38.10;28.50;;;;;;4980517;28;20471;-47
2022/08/02 12:01:32;;;;;;;3.77;3.47;;;38.10;28.40;;;;;;4980009;28;20479;-51
2022/08/02 12:04:02;;;;;;;3.37;3.17;;;38.00;28.60;;;;;;4979750;28;20802;-51
2022/08/02 12:06:29;;;;;;;3.77;3.40;;;38.00;28.60;;;;;;4991575;28;20496;-52
2022/08/02 12:09:21;;;;;;;3.70;3.40;;;37.70;28.90;;;;;;4988511;28;20480;-48
2022/08/02 12:11:50;;;;;;;3.57;3.37;;;37.60;29.10;;;;;;4980693;28;21243;-48
2022/08/02 12:14:16;;;;;;;3.43;3.23;;;37.50;29.10;;;;;;4982047;28;20853;-48
2022/08/02 12:19:26;;;;;;;3.30;3.10;;;37.80;28.50;;;;;;4984002;28;20503;-49
2022/08/02 12:22:31;;;;;;;3.40;3.17;;;37.90;28.50;;;;;;4987395;28;20945;-48
2022/08/02 12:24:57;;;;;;;3.80;3.23;;;38.00;28.40;;;;;;5004956;28;20228;-49
2022/08/02 12:27:36;;;;;;;3.73;3.43;;;38.10;28.40;;;;;;5002510;28;20572;-47
2022/08/02 12:30:05;;;;;;;3.77;3.47;;;38.20;27.70;;;;;;4978788;28;20461;-50
2022/08/02 12:32:31;;;;;;;3.07;2.87;;;38.00;27.90;;;;;;4979724;28;20452;-52
2022/08/02 12:35:07;;;;;;;3.30;3.10;;;38.00;27.70;;;;;;4978209;28;20546;-51
2022/08/02 12:37:33;;;;;;;3.47;3.17;;;38.10;27.70;;;;;;4983573;28;20899;-52
2022/08/02 12:40:28;;;;;;;3.90;3.70;;;37.70;28.00;;;;;;4976255;28;20489;-53
2022/08/02 12:42:59;;;;;;;3.20;3.00;;;37.90;28.10;;;;;;4979946;28;20190;-50
2022/08/02 12:45:27;;;;;;;3.50;3.20;;;38.10;28.20;;;;;;4986059;28;20461;-50
2022/08/02 12:47:55;;;;;;;4.73;3.10;;;38.10;28.00;;;;;;4980404;28;20489;-48
2022/08/02 12:50:25;;;;;;;3.40;3.20;;;38.20;28.20;;;;;;4982582;28;20441;-48
2022/08/02 12:53:05;;;;;;;4.00;3.53;;;38.30;28.20;;;;;;4978906;28;20465;-50
2022/08/02 12:55:32;;;;;;;4.70;3.63;;;38.10;27.80;;;;;;4974738;28;20927;-47
2022/08/02 12:58:01;;;;;;;3.30;3.10;;;38.20;27.80;;;;;;4986662;28;20940;-49
2022/08/02 13:00:28;;;;;;;3.73;3.33;;;38.20;27.30;;;;;;4988561;28;20481;-51
2022/08/02 13:02:54;;;;;;;6.13;3.17;;;38.30;27.30;;;;;;4977464;28;21003;-47